createdAt,value
2023-03-11T00:01:15.162Z,47.65
2023-03-11T00:03:41.746Z,47.47
2023-03-11T00:06:08.303Z,47.60
2023-03-11T00:08:34.859Z,47.26
2023-03-11T00:11:02.049Z,47.94
2023-03-11T00:13:29.662Z,47.85
2023-03-11T00:15:56.928Z,47.84
2023-03-11T00:18:27.251Z,47.78
2023-03-11T00:20:55.874Z,47.63
2023-03-11T00:23:23.035Z,47.94
2023-03-11T00:25:49.597Z,47.66
2023-03-11T00:28:16.690Z,47.76
2023-03-11T00:30:45.454Z,47.61
2023-03-11T00:33:14.073Z,47.62
2023-03-11T00:35:42.235Z,47.56
2023-03-11T00:38:11.863Z,47.76
2023-03-11T00:40:39.399Z,47.39
2023-03-11T00:43:05.984Z,47.64
2023-03-11T00:45:32.902Z,48.09
2023-03-11T00:47:59.565Z,47.70
2023-03-11T00:50:32.265Z,47.83
2023-03-11T00:52:59.299Z,47.66
2023-03-11T00:55:28.965Z,47.63
2023-03-11T00:57:58.155Z,47.92
2023-03-11T01:00:26.233Z,47.75
2023-03-11T01:02:54.573Z,47.50
2023-03-11T01:05:23.906Z,47.24
2023-03-11T01:07:50.440Z,47.41
2023-03-11T01:10:17.603Z,47.42
2023-03-11T01:12:44.408Z,47.35
2023-03-11T01:15:19.100Z,47.18
2023-03-11T01:17:46.182Z,47.64
2023-03-11T01:20:13.761Z,47.47
2023-03-11T01:22:40.336Z,47.23
2023-03-11T01:25:07.227Z,47.36
2023-03-11T01:27:33.895Z,47.44
2023-03-11T01:30:00.431Z,47.65
2023-03-11T01:32:27.080Z,47.26
2023-03-11T01:34:53.609Z,47.13
2023-03-11T01:37:20.493Z,46.78
2023-03-11T01:39:47.918Z,46.97
2023-03-11T01:42:14.504Z,46.73
2023-03-11T01:44:41.036Z,46.71
2023-03-11T01:47:10.659Z,46.17
2023-03-11T01:49:41.986Z,47.08
2023-03-11T01:52:09.724Z,46.60
2023-03-11T01:54:39.204Z,46.66
2023-03-11T01:57:09.652Z,46.41
2023-03-11T01:59:48.740Z,46.06
2023-03-11T02:02:18.915Z,46.30
2023-03-11T02:04:46.480Z,46.57
2023-03-11T02:07:14.812Z,46.57
2023-03-11T02:09:41.664Z,46.54
2023-03-11T02:12:11.450Z,46.75
2023-03-11T02:14:43.427Z,46.19
2023-03-11T02:17:10.309Z,46.48
2023-03-11T02:19:59.343Z,46.22
2023-03-11T02:22:28.355Z,46.24
2023-03-11T02:25:11.384Z,45.84
2023-03-11T02:27:41.750Z,46.17
2023-03-11T02:30:13.087Z,46.18
2023-03-11T02:32:41.063Z,46.04
2023-03-11T02:35:07.838Z,46.07
2023-03-11T02:37:34.486Z,45.91
2023-03-11T02:40:22.904Z,45.74
2023-03-11T02:42:56.407Z,45.78
2023-03-11T02:45:25.786Z,45.92
2023-03-11T02:47:54.622Z,46.05
2023-03-11T02:50:21.541Z,46.17
2023-03-11T02:52:49.693Z,46.69
2023-03-11T02:55:18.119Z,46.25
2023-03-11T02:57:45.322Z,46.51
2023-03-11T03:00:15.181Z,46.39
2023-03-11T03:02:43.366Z,46.40
2023-03-11T03:05:11.472Z,46.69
2023-03-11T03:07:38.105Z,46.75
2023-03-11T03:10:06.924Z,47.07
2023-03-11T03:12:33.510Z,46.91
2023-03-11T03:15:00.199Z,46.88
2023-03-11T03:17:26.847Z,46.96
2023-03-11T03:19:53.412Z,46.88
2023-03-11T03:22:20.043Z,46.72
2023-03-11T03:24:46.785Z,46.68
2023-03-11T03:27:13.349Z,46.86
2023-03-11T03:29:39.877Z,46.76
2023-03-11T03:32:06.801Z,46.75
2023-03-11T03:34:33.609Z,46.88
2023-03-11T03:37:00.185Z,47.07
2023-03-11T03:39:28.735Z,46.70
2023-03-11T03:41:56.572Z,46.71
2023-03-11T03:44:23.132Z,46.80
2023-03-11T03:46:49.704Z,46.86
2023-03-11T03:49:16.448Z,46.74
2023-03-11T03:51:43.079Z,47.08
2023-03-11T03:54:09.668Z,46.85
2023-03-11T03:56:36.242Z,47.24
2023-03-11T03:59:02.919Z,47.12
2023-03-11T04:01:29.529Z,46.90
2023-03-11T04:03:56.087Z,47.00
2023-03-11T04:06:25.395Z,47.02
2023-03-11T04:08:53.032Z,46.65
2023-03-11T04:11:19.984Z,46.86
2023-03-11T04:13:46.856Z,46.65
2023-03-11T04:16:17.581Z,46.77
2023-03-11T04:18:44.483Z,46.66
2023-03-11T04:21:11.317Z,46.66
2023-03-11T04:23:37.892Z,46.81
2023-03-11T04:26:04.739Z,46.48
2023-03-11T04:28:31.459Z,46.96
2023-03-11T04:30:58.163Z,46.64
2023-03-11T04:33:25.116Z,46.53
2023-03-11T04:35:51.851Z,46.75
2023-03-11T04:38:18.420Z,46.59
2023-03-11T04:40:44.955Z,46.73
2023-03-11T04:43:11.524Z,46.73
2023-03-11T04:45:39.279Z,46.64
2023-03-11T04:48:06.122Z,46.72
2023-03-11T04:50:32.778Z,46.49
2023-03-11T04:52:59.364Z,46.75
2023-03-11T04:55:26.197Z,46.61
2023-03-11T04:57:52.723Z,46.53
2023-03-11T05:00:24.701Z,46.66
2023-03-11T05:02:51.521Z,46.66
2023-03-11T05:05:21.179Z,46.51
2023-03-11T05:07:49.294Z,46.41
2023-03-11T05:10:22.421Z,46.80
2023-03-11T05:12:50.090Z,46.58
2023-03-11T05:15:17.302Z,46.51
2023-03-11T05:17:43.916Z,46.39
2023-03-11T05:20:11.266Z,46.68
2023-03-11T05:22:38.327Z,46.58
2023-03-11T05:25:05.753Z,46.34
2023-03-11T05:27:32.588Z,46.72
2023-03-11T05:29:59.156Z,46.35
2023-03-11T05:32:25.737Z,46.68
2023-03-11T05:34:52.661Z,46.76
2023-03-11T05:37:19.339Z,46.56
2023-03-11T05:39:45.868Z,46.25
2023-03-11T05:42:12.543Z,46.44
2023-03-11T05:44:39.259Z,46.42
2023-03-11T05:47:05.942Z,46.43
2023-03-11T05:49:32.630Z,46.63
2023-03-11T05:51:59.269Z,46.10
2023-03-11T05:54:26.164Z,46.16
2023-03-11T05:56:52.806Z,46.28
2023-03-11T05:59:19.452Z,46.40
2023-03-11T06:01:46.125Z,46.16
2023-03-11T06:04:12.956Z,46.52
2023-03-11T06:06:41.588Z,46.16
2023-03-11T06:09:12.853Z,45.96
2023-03-11T06:11:39.445Z,46.32
2023-03-11T06:14:06.165Z,46.37
2023-03-11T06:16:32.953Z,46.21
2023-03-11T06:19:02.536Z,46.35
2023-03-11T06:21:29.156Z,46.40
2023-03-11T06:23:55.860Z,46.10
2023-03-11T06:26:23.540Z,46.08
2023-03-11T06:28:51.795Z,46.07
2023-03-11T06:31:28.790Z,45.84
2023-03-11T06:33:59.362Z,46.53
2023-03-11T06:36:26.462Z,46.02
2023-03-11T06:38:54.698Z,46.45
2023-03-11T06:41:21.447Z,46.36
2023-03-11T06:43:48.013Z,46.08
2023-03-11T06:46:20.402Z,45.80
2023-03-11T06:48:47.430Z,46.38
2023-03-11T06:51:14.223Z,46.29
2023-03-11T06:53:40.857Z,46.31
2023-03-11T06:56:10.201Z,45.91
2023-03-11T06:58:39.110Z,45.93
2023-03-11T07:01:08.643Z,46.25
2023-03-11T07:03:35.219Z,46.00
2023-03-11T07:06:02.245Z,45.68
2023-03-11T07:08:30.308Z,45.95
2023-03-11T07:11:07.418Z,45.48
2023-03-11T07:13:34.589Z,46.21
2023-03-11T07:16:05.264Z,45.42
2023-03-11T07:18:32.787Z,45.92
2023-03-11T07:20:59.380Z,46.17
2023-03-11T07:23:25.933Z,46.22
2023-03-11T07:25:52.909Z,46.24
2023-03-11T07:28:21.342Z,45.62
2023-03-11T07:30:48.680Z,45.55
2023-03-11T07:33:16.007Z,45.29
2023-03-11T07:35:42.892Z,45.43
2023-03-11T07:38:09.640Z,45.50
2023-03-11T07:40:36.703Z,45.06
2023-03-11T07:43:03.483Z,44.64
2023-03-11T07:45:30.026Z,44.29
2023-03-11T07:47:56.585Z,44.29
2023-03-11T07:50:23.191Z,43.91
2023-03-11T07:52:49.941Z,43.76
2023-03-11T07:55:16.546Z,43.65
2023-03-11T07:57:43.263Z,43.78
2023-03-11T08:00:11.051Z,43.46
2023-03-11T08:02:37.713Z,43.53
2023-03-11T08:05:04.498Z,43.65
2023-03-11T08:07:32.342Z,43.52
2023-03-11T08:09:59.367Z,43.65
2023-03-11T08:12:25.942Z,43.44
2023-03-11T08:14:52.492Z,43.32
2023-03-11T08:17:19.095Z,43.13
2023-03-11T08:19:45.711Z,42.84
2023-03-11T08:22:12.277Z,43.03
2023-03-11T08:24:38.863Z,42.80
2023-03-11T08:27:05.751Z,42.77
2023-03-11T08:29:32.314Z,43.05
2023-03-11T08:31:58.885Z,43.06
2023-03-11T08:34:27.624Z,42.97
2023-03-11T08:36:54.436Z,42.78
2023-03-11T08:39:21.002Z,43.00
2023-03-11T08:41:47.553Z,42.73
2023-03-11T08:44:14.128Z,42.89
2023-03-11T08:46:40.799Z,42.79
2023-03-11T08:49:07.542Z,42.97
2023-03-11T08:51:35.301Z,43.20
2023-03-11T08:54:03.004Z,43.17
2023-03-11T08:56:29.875Z,43.73
2023-03-11T08:58:56.536Z,43.45
2023-03-11T09:01:23.793Z,43.49
2023-03-11T09:03:50.417Z,43.69
2023-03-11T09:06:17.980Z,43.41
2023-03-11T09:08:45.413Z,43.69
2023-03-11T09:11:13.667Z,43.51
2023-03-11T09:13:41.492Z,43.38
2023-03-11T09:16:12.504Z,43.24
2023-03-11T09:18:39.104Z,43.58
2023-03-11T09:21:06.205Z,43.49
2023-03-11T09:23:32.803Z,43.40
2023-03-11T09:25:59.338Z,43.27
2023-03-11T09:28:25.920Z,43.43
2023-03-11T09:30:52.459Z,43.31
2023-03-11T09:33:19.342Z,43.54
2023-03-11T09:35:46.180Z,43.24
2023-03-11T09:38:12.854Z,43.57
2023-03-11T09:40:55.897Z,43.07
2023-03-11T09:43:28.786Z,43.18
2023-03-11T09:46:22.483Z,43.11
2023-03-11T09:49:05.994Z,43.23
2023-03-11T09:51:51.382Z,43.61
2023-03-11T09:54:18.535Z,43.90
2023-03-11T09:56:45.336Z,43.91
2023-03-11T09:59:17.320Z,43.94
2023-03-11T10:01:47.012Z,44.23
2023-03-11T10:04:20.755Z,44.38
2023-03-11T10:06:48.099Z,44.64
2023-03-11T10:09:30.648Z,44.48
2023-03-11T10:12:08.171Z,44.65
2023-03-11T10:14:49.015Z,44.93
2023-03-11T10:17:47.798Z,45.08
2023-03-11T10:20:20.116Z,45.60
2023-03-11T10:23:12.722Z,45.36
2023-03-11T10:25:59.876Z,45.62
2023-03-11T10:28:51.992Z,45.74
2023-03-11T10:31:20.091Z,46.01
2023-03-11T10:33:48.861Z,46.06
2023-03-11T10:36:24.126Z,45.84
2023-03-11T10:38:52.893Z,45.96
2023-03-11T10:41:42.159Z,45.96
2023-03-11T10:44:24.474Z,45.97
2023-03-11T10:46:51.060Z,46.01
2023-03-11T10:49:18.515Z,46.15
2023-03-11T10:51:48.321Z,46.22
2023-03-11T10:54:30.471Z,45.94
2023-03-11T10:57:03.335Z,46.39
2023-03-11T10:59:45.233Z,46.15
2023-03-11T11:02:32.417Z,46.25
2023-03-11T11:05:32.812Z,46.29
2023-03-11T11:08:17.090Z,46.21
2023-03-11T11:10:51.799Z,46.27
2023-03-11T11:13:21.839Z,46.39
2023-03-11T11:15:54.986Z,46.42
2023-03-11T11:19:10.820Z,46.40
2023-03-11T11:21:52.399Z,46.72
2023-03-11T11:24:24.274Z,47.15
2023-03-11T11:27:19.178Z,47.01
2023-03-11T11:29:46.765Z,47.15
2023-03-11T11:32:19.388Z,47.55
2023-03-11T11:34:58.950Z,47.09
2023-03-11T11:37:31.996Z,47.23
2023-03-11T11:40:17.028Z,47.69
2023-03-11T11:43:12.872Z,48.62
2023-03-11T11:46:02.199Z,47.93
2023-03-11T11:48:50.134Z,48.59
2023-03-11T11:51:33.244Z,48.94
2023-03-11T11:54:09.220Z,49.66
2023-03-11T11:56:35.607Z,49.70
2023-03-11T11:59:02.249Z,49.46
2023-03-11T12:01:44.953Z,49.18
2023-03-11T12:04:12.204Z,49.60
2023-03-11T12:06:54.323Z,50.07
2023-03-11T12:09:30.401Z,49.51
2023-03-11T12:12:05.855Z,49.65
2023-03-11T12:14:38.523Z,48.74
2023-03-11T12:17:05.457Z,49.79
2023-03-11T12:19:43.961Z,49.70
2023-03-11T12:22:32.549Z,49.16
2023-03-11T12:25:22.072Z,49.04
2023-03-11T12:27:57.570Z,48.66
2023-03-11T12:30:29.472Z,49.32
2023-03-11T12:33:01.691Z,49.55
2023-03-11T12:35:30.952Z,49.41
2023-03-11T12:37:57.579Z,49.46
2023-03-11T12:40:42.534Z,49.67
2023-03-11T12:43:33.603Z,49.58
2023-03-11T12:46:02.057Z,49.56
2023-03-11T12:48:45.481Z,49.87
2023-03-11T12:51:27.059Z,50.30
2023-03-11T12:53:55.189Z,50.16
2023-03-11T12:56:30.758Z,50.09
2023-03-11T12:59:06.272Z,50.06
2023-03-11T13:02:14.151Z,50.30
2023-03-11T13:04:59.215Z,50.32
2023-03-11T13:07:28.694Z,49.82
2023-03-11T13:10:07.191Z,50.28
2023-03-11T13:12:49.601Z,51.18
2023-03-11T13:15:19.875Z,51.40
2023-03-11T13:17:59.843Z,51.41
2023-03-11T13:20:41.736Z,51.88
2023-03-11T13:23:14.411Z,51.64
2023-03-11T13:25:47.173Z,51.81
2023-03-11T13:28:27.717Z,51.89
2023-03-11T13:31:24.505Z,52.05
2023-03-11T13:34:17.426Z,52.10
2023-03-11T13:36:50.088Z,51.75
2023-03-11T13:39:32.245Z,52.12
2023-03-11T13:41:58.851Z,51.73
2023-03-11T13:44:41.087Z,51.88
2023-03-11T13:47:13.944Z,51.64
2023-03-11T13:49:43.604Z,51.62
2023-03-11T13:52:16.924Z,51.96
2023-03-11T13:54:53.204Z,52.22
2023-03-11T13:57:31.779Z,52.06
2023-03-11T14:00:17.870Z,51.74
2023-03-11T14:03:09.591Z,51.59
2023-03-11T14:05:40.040Z,51.56
2023-03-11T14:08:24.128Z,51.68
2023-03-11T14:11:11.786Z,51.77
2023-03-11T14:13:46.623Z,52.06
2023-03-11T14:16:44.125Z,51.61
2023-03-11T14:19:16.419Z,51.63
2023-03-11T14:21:44.480Z,51.39
2023-03-11T14:24:23.843Z,51.58
2023-03-11T14:26:55.240Z,51.07
2023-03-11T14:29:38.284Z,51.07
2023-03-11T14:32:34.346Z,51.17
2023-03-11T14:35:01.331Z,51.20
2023-03-11T14:37:32.518Z,50.41
2023-03-11T14:39:59.161Z,47.42
2023-03-11T14:42:29.819Z,47.52
2023-03-11T14:45:07.841Z,50.07
2023-03-11T14:47:49.006Z,49.06
2023-03-11T14:50:21.958Z,47.41
2023-03-11T14:53:17.764Z,45.30
2023-03-11T14:55:51.101Z,44.90
2023-03-11T14:58:34.830Z,45.72
2023-03-11T15:01:42.867Z,49.09
2023-03-11T15:04:13.382Z,49.34
2023-03-11T15:06:45.862Z,48.60
2023-03-11T15:09:14.871Z,48.22
2023-03-11T15:11:55.750Z,48.69
2023-03-11T15:14:35.615Z,48.39
2023-03-11T15:17:39.223Z,45.73
2023-03-11T15:20:37.714Z,48.35
2023-03-11T15:23:06.260Z,48.81
2023-03-11T15:25:35.121Z,48.73
2023-03-11T15:28:27.137Z,48.37
2023-03-11T15:31:17.641Z,48.25
2023-03-11T15:33:44.614Z,48.40
2023-03-11T15:36:39.523Z,48.12
2023-03-11T15:39:13.788Z,48.25
2023-03-11T15:42:10.050Z,48.15
2023-03-11T15:44:51.607Z,48.07
2023-03-11T15:47:23.297Z,48.37
2023-03-11T15:49:50.484Z,48.51
2023-03-11T15:52:19.284Z,48.36
2023-03-11T15:54:55.059Z,48.55
2023-03-11T15:57:28.239Z,48.38
2023-03-11T15:59:57.248Z,48.55
2023-03-11T16:02:29.968Z,48.61
2023-03-11T16:04:57.986Z,48.47
2023-03-11T16:07:38.621Z,48.69
2023-03-11T16:10:07.909Z,48.77
2023-03-11T16:12:34.536Z,48.87
2023-03-11T16:15:01.576Z,48.61
2023-03-11T16:17:39.531Z,48.80
2023-03-11T16:20:13.582Z,49.09
2023-03-11T16:22:40.207Z,48.84
2023-03-11T16:25:09.913Z,49.07
2023-03-11T16:27:36.705Z,49.40
2023-03-11T16:30:03.777Z,49.09
2023-03-11T16:32:30.378Z,49.35
2023-03-11T16:34:57.126Z,49.30
2023-03-11T16:37:23.703Z,49.38
2023-03-11T16:39:50.396Z,49.04
2023-03-11T16:42:22.956Z,49.39
2023-03-11T16:44:50.141Z,49.76
2023-03-11T16:47:16.870Z,49.34
2023-03-11T16:49:43.550Z,49.24
2023-03-11T16:52:10.249Z,49.61
2023-03-11T16:54:36.924Z,49.38
2023-03-11T16:57:03.580Z,49.17
2023-03-11T16:59:30.218Z,49.21
2023-03-11T17:01:56.871Z,49.32
2023-03-11T17:04:23.520Z,49.35
2023-03-11T17:06:50.110Z,49.32
2023-03-11T17:09:16.662Z,49.58
2023-03-11T17:11:43.242Z,49.64
2023-03-11T17:14:16.195Z,49.53
2023-03-11T17:16:45.218Z,49.51
2023-03-11T17:19:11.906Z,49.40
2023-03-11T17:21:38.447Z,49.65
2023-03-11T17:24:05.368Z,49.36
2023-03-11T17:26:31.911Z,49.34
2023-03-11T17:28:59.199Z,49.37
2023-03-11T17:31:25.863Z,49.18
2023-03-11T17:33:52.440Z,49.45
2023-03-11T17:36:19.501Z,49.50
2023-03-11T17:38:47.084Z,49.38
2023-03-11T17:41:16.176Z,49.61
2023-03-11T17:43:43.154Z,49.67
2023-03-11T17:46:12.369Z,49.46
2023-03-11T17:48:38.931Z,49.71
2023-03-11T17:51:11.144Z,50.06
2023-03-11T17:53:40.210Z,50.27
2023-03-11T17:56:07.600Z,50.27
2023-03-11T17:58:35.246Z,50.51
2023-03-11T18:01:09.419Z,50.43
2023-03-11T18:03:36.012Z,50.28
2023-03-11T18:06:05.843Z,50.08
2023-03-11T18:08:34.136Z,50.31
2023-03-11T18:11:22.069Z,50.47
2023-03-11T18:13:48.998Z,50.59
2023-03-11T18:16:18.963Z,50.39
2023-03-11T18:18:46.356Z,51.04
2023-03-11T18:21:15.848Z,50.65
2023-03-11T18:23:42.956Z,50.64
2023-03-11T18:26:12.183Z,50.87
2023-03-11T18:28:39.657Z,50.60
2023-03-11T18:31:11.788Z,50.34
2023-03-11T18:33:39.395Z,51.19
2023-03-11T18:36:15.069Z,50.50
2023-03-11T18:38:41.751Z,50.94
2023-03-11T18:41:08.300Z,51.09
2023-03-11T18:43:35.112Z,50.47
2023-03-11T18:46:02.366Z,50.71
2023-03-11T18:48:28.950Z,50.66
2023-03-11T18:50:55.685Z,50.87
2023-03-11T18:53:24.873Z,50.90
2023-03-11T18:55:52.784Z,50.87
2023-03-11T18:58:19.969Z,51.28
2023-03-11T19:00:46.591Z,50.95
2023-03-11T19:03:13.504Z,50.95
2023-03-11T19:05:40.108Z,51.26
2023-03-11T19:08:06.757Z,50.65
2023-03-11T19:10:33.330Z,51.05
2023-03-11T19:12:59.870Z,51.13
2023-03-11T19:15:26.460Z,50.68
2023-03-11T19:18:05.987Z,51.31
2023-03-11T19:20:34.512Z,50.53
2023-03-11T19:23:01.159Z,50.88
2023-03-11T19:25:28.313Z,50.81
2023-03-11T19:27:56.531Z,50.94
2023-03-11T19:30:23.367Z,51.02
2023-03-11T19:32:53.239Z,50.81
2023-03-11T19:35:21.582Z,50.44
2023-03-11T19:37:49.217Z,50.99
2023-03-11T19:40:17.462Z,51.16
2023-03-11T19:42:44.383Z,51.03
2023-03-11T19:45:11.483Z,50.62
2023-03-11T19:47:38.695Z,51.30
2023-03-11T19:50:06.426Z,50.78
2023-03-11T19:52:35.594Z,50.94
2023-03-11T19:55:02.426Z,51.20
2023-03-11T19:57:29.081Z,51.29
2023-03-11T19:59:56.007Z,51.21
2023-03-11T20:02:22.616Z,51.14
2023-03-11T20:04:49.356Z,51.13
2023-03-11T20:07:15.970Z,50.58
2023-03-11T20:09:42.592Z,51.33
2023-03-11T20:12:09.491Z,50.80
2023-03-11T20:14:36.040Z,50.74
2023-03-11T20:17:02.684Z,51.12
2023-03-11T20:19:29.255Z,51.20
2023-03-11T20:21:55.936Z,51.64
2023-03-11T20:24:22.550Z,51.26
2023-03-11T20:26:51.205Z,51.17
2023-03-11T20:29:18.067Z,51.04
2023-03-11T20:31:44.741Z,51.02
2023-03-11T20:34:12.378Z,51.56
2023-03-11T20:36:39.059Z,51.37
2023-03-11T20:39:07.950Z,50.99
2023-03-11T20:41:38.974Z,51.10
2023-03-11T20:44:08.131Z,50.69
2023-03-11T20:46:35.534Z,50.73
2023-03-11T20:49:02.758Z,50.73
2023-03-11T20:51:29.738Z,50.83
2023-03-11T20:53:56.394Z,51.00
2023-03-11T20:56:25.223Z,50.75
2023-03-11T20:58:54.837Z,50.87
2023-03-11T21:01:39.518Z,51.11
2023-03-11T21:04:06.242Z,50.96
2023-03-11T21:06:35.737Z,50.84
2023-03-11T21:09:05.299Z,50.99
2023-03-11T21:11:32.616Z,50.62
2023-03-11T21:13:59.562Z,50.91
2023-03-11T21:16:27.080Z,50.51
2023-03-11T21:18:54.365Z,50.82
2023-03-11T21:21:21.082Z,50.95
2023-03-11T21:23:48.868Z,50.91
2023-03-11T21:26:16.616Z,50.94
2023-03-11T21:28:46.743Z,50.92
2023-03-11T21:31:19.933Z,50.80
2023-03-11T21:33:47.628Z,50.57
2023-03-11T21:36:17.651Z,50.67
2023-03-11T21:38:45.688Z,50.90
2023-03-11T21:41:15.601Z,50.78
2023-03-11T21:43:43.163Z,50.75
2023-03-11T21:46:13.515Z,50.57
2023-03-11T21:48:40.392Z,50.99
2023-03-11T21:51:07.813Z,50.64
2023-03-11T21:53:35.056Z,50.54
2023-03-11T21:56:03.724Z,50.73
2023-03-11T21:58:30.806Z,50.33
2023-03-11T22:00:57.489Z,50.75
2023-03-11T22:03:24.299Z,50.71
2023-03-11T22:06:00.423Z,50.62
2023-03-11T22:08:27.609Z,50.56
2023-03-11T22:10:54.785Z,50.69
2023-03-11T22:13:21.751Z,50.70
2023-03-11T22:15:48.659Z,50.63
2023-03-11T22:18:15.371Z,50.46
2023-03-11T22:20:42.955Z,50.13
2023-03-11T22:23:10.323Z,50.63
2023-03-11T22:25:37.511Z,50.70
2023-03-11T22:28:04.464Z,50.30
2023-03-11T22:30:31.331Z,49.69
2023-03-11T22:32:57.984Z,49.54
2023-03-11T22:35:24.635Z,49.44
2023-03-11T22:37:51.188Z,49.38
2023-03-11T22:40:17.879Z,49.43
2023-03-11T22:42:44.438Z,49.31
2023-03-11T22:45:11.396Z,49.23
2023-03-11T22:47:38.056Z,49.08
2023-03-11T22:50:04.985Z,49.11
2023-03-11T22:52:31.569Z,48.80
2023-03-11T22:54:58.124Z,48.91
2023-03-11T22:57:24.705Z,48.91
2023-03-11T22:59:51.357Z,48.86
2023-03-11T23:02:19.515Z,48.79
2023-03-11T23:04:46.211Z,48.73
2023-03-11T23:07:13.055Z,48.84
2023-03-11T23:09:39.788Z,48.90
2023-03-11T23:12:07.006Z,48.67
2023-03-11T23:14:44.682Z,48.65
2023-03-11T23:17:12.370Z,48.70
2023-03-11T23:19:39.085Z,48.56
2023-03-11T23:22:06.976Z,48.63
2023-03-11T23:24:34.077Z,48.49
2023-03-11T23:27:01.028Z,48.50
2023-03-11T23:29:27.568Z,48.33
2023-03-11T23:31:54.120Z,48.25
2023-03-11T23:34:20.683Z,48.47
2023-03-11T23:36:47.454Z,48.44
2023-03-11T23:39:13.983Z,48.29
2023-03-11T23:41:40.523Z,48.32
2023-03-11T23:44:07.064Z,48.29
2023-03-11T23:46:33.774Z,48.43
2023-03-11T23:49:01.224Z,48.20
2023-03-11T23:51:28.277Z,48.07
2023-03-11T23:53:54.897Z,48.23
2023-03-11T23:56:21.507Z,48.14
2023-03-11T23:58:48.180Z,48.06
